createdAt,value
2019-05-19T00:00:48.103Z,29.50
2019-05-19T00:03:16.390Z,29.50
2019-05-19T00:05:44.647Z,29.40
2019-05-19T00:08:13.600Z,29.50
2019-05-19T00:10:41.833Z,29.60
2019-05-19T00:13:10.134Z,29.40
2019-05-19T00:15:38.419Z,29.50
2019-05-19T00:18:06.679Z,29.00
2019-05-19T00:20:34.963Z,29.50
2019-05-19T00:23:03.237Z,29.50
2019-05-19T00:25:31.783Z,29.50
2019-05-19T00:28:00.107Z,29.50
2019-05-19T00:30:28.414Z,29.40
2019-05-19T00:32:56.648Z,29.40
2019-05-19T00:35:24.945Z,29.20
2019-05-19T00:37:53.374Z,29.40
2019-05-19T00:40:24.071Z,29.20
2019-05-19T00:42:52.416Z,29.50
2019-05-19T00:45:20.955Z,29.20
2019-05-19T00:47:49.212Z,29.20
2019-05-19T00:50:17.479Z,29.00
2019-05-19T00:52:45.721Z,29.10
2019-05-19T00:55:13.982Z,28.90
2019-05-19T00:57:42.257Z,28.70
2019-05-19T01:00:10.708Z,28.90
2019-05-19T01:02:38.957Z,28.80
2019-05-19T01:05:07.876Z,29.10
2019-05-19T01:07:36.480Z,28.80
2019-05-19T01:10:06.799Z,28.60
2019-05-19T01:12:35.084Z,28.80
2019-05-19T01:15:03.937Z,28.80
2019-05-19T01:17:32.231Z,28.60
2019-05-19T01:20:00.481Z,29.10
2019-05-19T01:22:28.754Z,28.60
2019-05-19T01:24:57.010Z,28.60
2019-05-19T01:27:25.320Z,28.70
2019-05-19T01:29:53.564Z,28.50
2019-05-19T01:32:21.864Z,28.60
2019-05-19T01:34:50.102Z,28.60
2019-05-19T01:37:18.379Z,28.50
2019-05-19T01:39:46.656Z,28.50
2019-05-19T01:42:14.975Z,28.60
2019-05-19T01:44:43.235Z,28.60
2019-05-19T01:47:11.526Z,28.40
2019-05-19T01:49:39.812Z,28.50
2019-05-19T01:52:08.112Z,28.50
2019-05-19T01:54:36.357Z,28.30
2019-05-19T01:57:04.723Z,28.30
2019-05-19T01:59:32.981Z,28.30
2019-05-19T02:02:01.273Z,28.30
2019-05-19T02:04:29.600Z,28.40
2019-05-19T02:06:57.898Z,28.30
2019-05-19T02:09:26.206Z,28.20
2019-05-19T02:11:54.550Z,28.20
2019-05-19T02:14:22.800Z,28.10
2019-05-19T02:16:51.254Z,28.20
2019-05-19T02:19:19.576Z,28.20
2019-05-19T02:21:47.892Z,28.20
2019-05-19T02:24:16.137Z,28.10
2019-05-19T02:26:44.503Z,28.20
2019-05-19T02:29:12.745Z,28.20
2019-05-19T02:31:41.029Z,28.10
2019-05-19T02:34:09.323Z,28.00
2019-05-19T02:36:37.579Z,28.10
2019-05-19T02:39:06.397Z,28.10
2019-05-19T02:41:34.646Z,28.10
2019-05-19T02:44:03.088Z,28.00
2019-05-19T02:46:31.999Z,28.00
2019-05-19T02:49:00.549Z,28.00
2019-05-19T02:51:29.147Z,27.90
2019-05-19T02:53:57.420Z,27.90
2019-05-19T02:56:26.335Z,27.90
2019-05-19T02:58:54.607Z,27.80
2019-05-19T03:01:23.007Z,27.80
2019-05-19T03:03:51.379Z,27.90
2019-05-19T03:06:19.649Z,27.80
2019-05-19T03:08:47.937Z,27.80
2019-05-19T03:11:16.198Z,27.80
2019-05-19T03:13:44.484Z,27.70
2019-05-19T03:16:12.734Z,27.60
2019-05-19T03:18:41.014Z,27.70
2019-05-19T03:21:11.481Z,27.70
2019-05-19T03:23:39.253Z,27.50
2019-05-19T03:26:07.490Z,27.60
2019-05-19T03:28:35.751Z,27.70
2019-05-19T03:31:22.358Z,27.60
2019-05-19T03:33:55.346Z,27.50
2019-05-19T03:36:23.711Z,27.50
2019-05-19T03:38:51.957Z,27.50
2019-05-19T03:41:20.230Z,27.60
2019-05-19T03:43:48.503Z,27.40
2019-05-19T03:46:16.751Z,27.60
2019-05-19T03:48:45.043Z,27.50
2019-05-19T03:51:29.466Z,27.50
2019-05-19T03:53:43.332Z,27.60
2019-05-19T03:56:11.658Z,27.50
2019-05-19T03:58:39.941Z,27.50
2019-05-19T04:01:08.233Z,27.50
2019-05-19T04:03:36.516Z,27.60
2019-05-19T04:06:04.872Z,27.50
2019-05-19T04:08:33.147Z,27.50
2019-05-19T04:11:01.393Z,27.50
2019-05-19T04:13:29.671Z,27.50
2019-05-19T04:15:57.910Z,27.50
2019-05-19T04:18:26.246Z,27.50
2019-05-19T04:20:54.512Z,27.80
2019-05-19T04:23:22.796Z,27.50
2019-05-19T04:25:51.082Z,27.60
2019-05-19T04:28:19.347Z,27.50
2019-05-19T04:30:47.606Z,27.60
2019-05-19T04:33:15.873Z,27.60
2019-05-19T04:35:44.117Z,27.60
2019-05-19T04:38:12.398Z,27.80
2019-05-19T04:40:40.927Z,28.30
2019-05-19T04:43:09.245Z,27.80
2019-05-19T04:45:37.506Z,27.80
2019-05-19T04:48:09.353Z,28.10
2019-05-19T04:50:35.757Z,27.80
2019-05-19T04:53:04.025Z,28.00
2019-05-19T04:55:32.305Z,28.10
2019-05-19T04:58:00.609Z,28.20
2019-05-19T05:00:29.472Z,28.20
2019-05-19T05:02:57.751Z,28.90
2019-05-19T05:05:25.999Z,28.30
2019-05-19T05:07:54.264Z,28.30
2019-05-19T05:10:22.549Z,28.50
2019-05-19T05:12:50.889Z,28.90
2019-05-19T05:15:19.148Z,29.20
2019-05-19T05:17:47.419Z,29.20
2019-05-19T05:20:15.745Z,29.20
2019-05-19T05:22:44.009Z,29.20
2019-05-19T05:25:12.320Z,29.20
2019-05-19T05:27:40.643Z,29.20
2019-05-19T05:30:08.916Z,29.20
2019-05-19T05:32:37.267Z,29.20
2019-05-19T05:35:05.733Z,29.20
2019-05-19T05:37:33.997Z,29.30
2019-05-19T05:40:02.287Z,29.30
2019-05-19T05:42:31.831Z,29.30
2019-05-19T05:45:00.403Z,29.30
2019-05-19T05:47:28.673Z,29.80
2019-05-19T05:49:57.154Z,29.30
2019-05-19T05:52:37.614Z,29.30
2019-05-19T05:54:55.477Z,29.40
2019-05-19T05:57:23.748Z,29.50
2019-05-19T05:59:52.315Z,29.50
2019-05-19T06:02:20.559Z,29.50
2019-05-19T06:04:48.919Z,29.60
2019-05-19T06:07:17.190Z,31.30
2019-05-19T06:09:45.437Z,31.90
2019-05-19T06:12:13.703Z,33.50
2019-05-19T06:14:42.045Z,32.90
2019-05-19T06:17:10.278Z,32.50
2019-05-19T06:19:38.557Z,34.50
2019-05-19T06:22:06.817Z,33.00
2019-05-19T06:24:35.124Z,33.40
2019-05-19T06:27:04.613Z,31.40
2019-05-19T06:29:32.901Z,33.10
2019-05-19T06:32:02.835Z,31.30
2019-05-19T06:34:31.098Z,31.40
2019-05-19T06:36:59.371Z,31.00
2019-05-19T06:39:27.784Z,30.90
2019-05-19T06:41:56.143Z,31.60
2019-05-19T06:44:24.399Z,31.10
2019-05-19T06:46:52.679Z,30.30
2019-05-19T06:49:20.972Z,31.40
2019-05-19T06:51:49.304Z,30.90
2019-05-19T06:54:17.715Z,31.00
2019-05-19T06:56:46.059Z,30.80
2019-05-19T06:59:14.401Z,32.20
2019-05-19T07:01:42.739Z,31.00
2019-05-19T07:04:11.038Z,31.90
2019-05-19T07:06:39.454Z,31.80
2019-05-19T07:09:07.978Z,31.80
2019-05-19T07:11:36.315Z,30.90
2019-05-19T07:14:04.601Z,30.70
2019-05-19T07:16:32.996Z,30.50
2019-05-19T07:19:01.233Z,30.70
2019-05-19T07:21:29.871Z,31.10
2019-05-19T07:23:58.320Z,31.10
2019-05-19T07:26:26.879Z,31.40
2019-05-19T07:28:55.174Z,31.10
2019-05-19T07:31:23.556Z,31.60
2019-05-19T07:33:51.852Z,32.40
2019-05-19T07:36:20.321Z,31.30
2019-05-19T07:38:48.635Z,31.70
2019-05-19T07:41:16.999Z,32.80
2019-05-19T07:43:45.447Z,32.40
2019-05-19T07:46:13.778Z,32.90
2019-05-19T07:48:42.049Z,33.00
2019-05-19T07:51:29.779Z,33.30
2019-05-19T07:53:58.051Z,33.10
2019-05-19T07:56:26.351Z,34.20
2019-05-19T07:58:54.594Z,33.90
2019-05-19T08:01:22.959Z,34.60
2019-05-19T08:03:51.231Z,34.10
2019-05-19T08:06:19.517Z,34.30
2019-05-19T08:08:47.878Z,33.70
2019-05-19T08:11:16.133Z,34.10
2019-05-19T08:13:44.412Z,34.20
2019-05-19T08:16:12.682Z,33.30
2019-05-19T08:18:40.984Z,33.50
2019-05-19T08:21:09.238Z,33.20
2019-05-19T08:23:37.563Z,33.30
2019-05-19T08:26:07.656Z,33.80
2019-05-19T08:28:35.930Z,32.80
2019-05-19T08:31:04.895Z,32.70
2019-05-19T08:33:33.174Z,32.90
2019-05-19T08:36:02.157Z,33.10
2019-05-19T08:38:30.410Z,33.40
2019-05-19T08:40:58.664Z,33.70
2019-05-19T08:43:27.174Z,33.30
2019-05-19T08:45:55.439Z,33.00
2019-05-19T08:48:23.675Z,33.30
2019-05-19T08:50:52.080Z,32.70
2019-05-19T08:53:20.327Z,33.30
2019-05-19T08:55:48.599Z,32.90
2019-05-19T08:58:16.962Z,32.90
2019-05-19T09:00:45.292Z,32.30
2019-05-19T09:03:13.568Z,32.20
2019-05-19T09:05:41.826Z,31.70
2019-05-19T09:08:10.145Z,31.50
2019-05-19T09:10:38.412Z,31.30
2019-05-19T09:13:06.752Z,31.20
2019-05-19T09:15:37.928Z,30.50
2019-05-19T09:18:06.174Z,29.60
2019-05-19T09:20:34.510Z,30.70
2019-05-19T09:23:02.927Z,30.30
2019-05-19T09:25:31.346Z,30.00
2019-05-19T09:28:00.890Z,30.10
2019-05-19T09:30:33.399Z,30.60
2019-05-19T09:33:01.763Z,30.00
2019-05-19T09:35:33.178Z,29.60
2019-05-19T09:38:01.511Z,29.60
2019-05-19T09:40:29.814Z,30.10
2019-05-19T09:42:58.515Z,29.60
2019-05-19T09:45:26.986Z,29.60
2019-05-19T09:47:55.231Z,29.50
2019-05-19T09:50:23.730Z,29.60
2019-05-19T09:52:51.974Z,29.50
2019-05-19T09:55:20.244Z,29.50
2019-05-19T09:57:51.121Z,29.50
2019-05-19T10:00:21.000Z,29.60
2019-05-19T10:02:49.240Z,29.50
2019-05-19T10:05:17.587Z,29.30
2019-05-19T10:07:45.861Z,29.50
2019-05-19T10:10:34.009Z,29.60
2019-05-19T10:13:02.316Z,29.50
2019-05-19T10:15:30.593Z,29.60
2019-05-19T10:17:59.300Z,29.60
2019-05-19T10:20:27.688Z,29.60
2019-05-19T10:22:55.969Z,28.20
2019-05-19T10:25:24.320Z,28.50
2019-05-19T10:27:52.591Z,28.90
2019-05-19T10:30:20.909Z,28.90
2019-05-19T10:32:49.189Z,29.40
2019-05-19T10:35:17.446Z,29.70
2019-05-19T10:37:45.730Z,29.70
2019-05-19T10:40:14.339Z,29.70
2019-05-19T10:42:42.725Z,29.70
2019-05-19T10:45:11.002Z,29.70
2019-05-19T10:47:39.244Z,29.70
2019-05-19T10:50:07.526Z,29.70
2019-05-19T10:52:35.800Z,28.90
2019-05-19T10:55:05.409Z,29.10
2019-05-19T10:57:33.696Z,28.80
2019-05-19T11:00:02.001Z,28.50
2019-05-19T11:02:30.361Z,28.00
2019-05-19T11:04:58.675Z,28.00
2019-05-19T11:07:27.042Z,28.40
2019-05-19T11:09:55.301Z,27.90
2019-05-19T11:12:23.582Z,28.00
2019-05-19T11:14:51.855Z,28.00
2019-05-19T11:17:20.121Z,27.80
2019-05-19T11:19:48.386Z,28.10
2019-05-19T11:22:16.770Z,28.30
2019-05-19T11:24:45.002Z,27.60
2019-05-19T11:27:13.299Z,27.50
2019-05-19T11:29:41.543Z,29.00
2019-05-19T11:32:09.827Z,29.80
2019-05-19T11:34:38.120Z,29.00
2019-05-19T11:37:07.451Z,28.20
2019-05-19T11:39:35.950Z,28.50
2019-05-19T11:42:04.238Z,28.30
2019-05-19T11:44:32.623Z,28.30
2019-05-19T11:47:01.022Z,28.20
2019-05-19T11:49:29.288Z,28.20
2019-05-19T11:51:57.579Z,27.70
2019-05-19T11:54:25.831Z,27.70
2019-05-19T11:56:54.113Z,28.30
2019-05-19T11:59:22.383Z,28.70
2019-05-19T12:01:50.661Z,28.90
2019-05-19T12:04:18.917Z,29.80
2019-05-19T12:06:47.268Z,29.80
2019-05-19T12:09:15.568Z,29.80
2019-05-19T12:11:43.836Z,28.90
2019-05-19T12:14:12.092Z,29.70
2019-05-19T12:16:40.390Z,29.10
2019-05-19T12:19:08.692Z,29.80
2019-05-19T12:21:37.104Z,29.80
2019-05-19T12:24:05.377Z,29.80
2019-05-19T12:26:34.868Z,29.80
2019-05-19T12:29:03.290Z,29.80
2019-05-19T12:31:31.527Z,29.80
2019-05-19T12:33:59.820Z,29.70
2019-05-19T12:36:28.086Z,29.80
2019-05-19T12:38:56.388Z,29.80
2019-05-19T12:41:24.701Z,30.50
2019-05-19T12:43:52.999Z,29.80
2019-05-19T12:46:21.300Z,30.00
2019-05-19T12:48:49.527Z,30.70
2019-05-19T12:51:17.804Z,29.70
2019-05-19T12:53:46.068Z,29.70
2019-05-19T12:56:14.327Z,29.70
2019-05-19T12:58:42.606Z,29.70
2019-05-19T13:01:10.994Z,30.50
2019-05-19T13:03:39.234Z,29.70
2019-05-19T13:06:07.522Z,29.50
2019-05-19T13:08:35.774Z,29.70
2019-05-19T13:11:04.054Z,28.40
2019-05-19T13:13:32.294Z,28.90
2019-05-19T13:16:00.577Z,29.70
2019-05-19T13:18:28.828Z,29.90
2019-05-19T13:20:57.130Z,29.00
2019-05-19T13:23:25.384Z,29.00
2019-05-19T13:25:53.754Z,28.10
2019-05-19T13:28:22.036Z,28.40
2019-05-19T13:30:50.385Z,28.30
2019-05-19T13:33:18.641Z,27.80
2019-05-19T13:35:46.912Z,28.30
2019-05-19T13:38:15.183Z,27.30
2019-05-19T13:40:43.472Z,27.80
2019-05-19T13:43:11.769Z,28.00
2019-05-19T13:45:40.001Z,27.60
2019-05-19T13:48:08.282Z,27.30
2019-05-19T13:50:36.632Z,29.20
2019-05-19T13:53:04.866Z,28.40
2019-05-19T13:55:33.120Z,27.70
2019-05-19T13:58:03.542Z,27.30
2019-05-19T14:00:31.357Z,26.90
2019-05-19T14:02:59.667Z,26.70
2019-05-19T14:05:27.994Z,26.00
2019-05-19T14:07:56.291Z,26.50
2019-05-19T14:10:24.616Z,25.70
2019-05-19T14:12:52.883Z,25.50
2019-05-19T14:15:21.131Z,26.50
2019-05-19T14:17:50.632Z,26.20
2019-05-19T14:20:18.900Z,25.50
2019-05-19T14:22:47.201Z,26.60
2019-05-19T14:25:15.438Z,25.40
2019-05-19T14:27:43.722Z,25.40
2019-05-19T14:30:12.044Z,25.00
2019-05-19T14:32:40.316Z,25.70
2019-05-19T14:35:08.605Z,25.40
2019-05-19T14:37:36.851Z,25.00
2019-05-19T14:40:06.815Z,25.60
2019-05-19T14:42:42.424Z,25.00
2019-05-19T14:45:10.800Z,25.00
2019-05-19T14:47:39.070Z,25.00
2019-05-19T14:50:07.356Z,25.20
2019-05-19T14:52:35.662Z,25.40
2019-05-19T14:55:04.022Z,25.20
2019-05-19T14:57:43.901Z,25.00
2019-05-19T15:00:02.338Z,25.20
2019-05-19T15:02:30.631Z,25.00
2019-05-19T15:04:58.966Z,25.00
2019-05-19T15:07:27.202Z,25.60
2019-05-19T15:09:55.543Z,25.70
2019-05-19T15:12:23.791Z,25.30
2019-05-19T15:14:52.086Z,25.10
2019-05-19T15:17:20.329Z,25.10
2019-05-19T15:19:48.645Z,25.10
2019-05-19T15:22:16.971Z,25.00
2019-05-19T15:24:45.217Z,25.00
2019-05-19T15:27:13.473Z,25.00
2019-05-19T15:29:45.906Z,25.00
2019-05-19T15:32:14.166Z,26.70
2019-05-19T15:34:42.454Z,27.20
2019-05-19T15:37:10.749Z,28.10
2019-05-19T15:39:39.020Z,28.00
2019-05-19T15:42:07.299Z,28.80
2019-05-19T15:44:37.145Z,29.40
2019-05-19T15:47:08.494Z,28.40
2019-05-19T15:49:36.815Z,27.50
2019-05-19T15:52:05.951Z,28.20
2019-05-19T15:54:34.788Z,27.50
2019-05-19T15:57:11.290Z,28.10
2019-05-19T15:59:39.581Z,28.50
2019-05-19T16:02:07.820Z,28.90
2019-05-19T16:04:36.089Z,29.60
2019-05-19T16:07:04.376Z,28.80
2019-05-19T16:09:32.670Z,28.10
2019-05-19T16:12:00.912Z,28.30
2019-05-19T16:14:29.195Z,28.30
2019-05-19T16:16:57.468Z,28.50
2019-05-19T16:19:25.832Z,28.40
2019-05-19T16:21:54.070Z,30.00
2019-05-19T16:24:22.369Z,29.10
2019-05-19T16:26:51.645Z,29.10
2019-05-19T16:29:20.019Z,28.00
2019-05-19T16:31:48.303Z,28.70
2019-05-19T16:34:16.601Z,28.30
2019-05-19T16:36:44.860Z,28.10
2019-05-19T16:39:13.139Z,28.30
2019-05-19T16:41:41.418Z,30.50
2019-05-19T16:44:09.706Z,30.70
2019-05-19T16:46:37.973Z,29.10
2019-05-19T16:49:06.268Z,29.70
2019-05-19T16:51:34.639Z,35.50
2019-05-19T16:54:04.541Z,36.20
2019-05-19T16:56:32.827Z,31.80
2019-05-19T16:59:01.095Z,28.50
2019-05-19T17:01:29.341Z,28.60
2019-05-19T17:03:57.625Z,26.70
2019-05-19T17:06:25.902Z,27.30
2019-05-19T17:08:54.168Z,27.10
2019-05-19T17:11:22.468Z,27.60
2019-05-19T17:13:50.875Z,28.00
2019-05-19T17:16:19.330Z,28.50
2019-05-19T17:18:47.606Z,28.50
2019-05-19T17:21:15.943Z,28.80
2019-05-19T17:23:44.272Z,29.10
2019-05-19T17:26:12.535Z,29.30
2019-05-19T17:28:40.825Z,29.50
2019-05-19T17:31:09.101Z,29.90
2019-05-19T17:33:37.395Z,30.00
2019-05-19T17:36:05.706Z,30.10
2019-05-19T17:38:33.977Z,30.00
2019-05-19T17:41:02.355Z,30.10
2019-05-19T17:43:30.621Z,30.40
2019-05-19T17:45:58.896Z,30.40
2019-05-19T17:48:27.219Z,30.50
2019-05-19T17:50:55.536Z,30.50
2019-05-19T17:53:23.798Z,30.40
2019-05-19T17:55:52.332Z,30.40
2019-05-19T17:58:21.121Z,30.40
2019-05-19T18:00:49.440Z,30.30
2019-05-19T18:03:17.707Z,30.30
2019-05-19T18:05:45.987Z,30.30
2019-05-19T18:08:14.272Z,30.30
2019-05-19T18:10:42.516Z,30.30
2019-05-19T18:13:10.815Z,30.30
2019-05-19T18:15:39.106Z,30.30
2019-05-19T18:18:07.344Z,30.30
2019-05-19T18:20:35.619Z,30.30
2019-05-19T18:23:03.919Z,30.40
2019-05-19T18:25:32.405Z,30.30
2019-05-19T18:28:00.745Z,30.30
2019-05-19T18:30:29.002Z,30.40
2019-05-19T18:32:57.294Z,46.60
2019-05-19T18:35:25.677Z,42.40
2019-05-19T18:37:53.918Z,36.70
2019-05-19T18:40:22.191Z,30.90
2019-05-19T18:42:50.496Z,30.50
2019-05-19T18:45:18.761Z,30.40
2019-05-19T18:47:47.009Z,30.30
2019-05-19T18:50:15.385Z,30.20
2019-05-19T18:52:43.663Z,30.20
2019-05-19T18:55:12.511Z,30.90
2019-05-19T18:57:40.800Z,31.20
2019-05-19T19:00:09.074Z,31.90
2019-05-19T19:02:37.352Z,31.80
2019-05-19T19:05:06.456Z,32.40
2019-05-19T19:07:48.268Z,32.70
2019-05-19T19:10:16.516Z,32.70
2019-05-19T19:12:44.761Z,33.10
2019-05-19T19:15:13.081Z,33.50
2019-05-19T19:17:41.340Z,33.30
2019-05-19T19:20:09.617Z,33.70
2019-05-19T19:22:37.885Z,33.70
2019-05-19T19:25:07.183Z,34.20
2019-05-19T19:27:35.492Z,33.80
2019-05-19T19:30:06.168Z,33.60
2019-05-19T19:32:34.433Z,33.70
2019-05-19T19:35:02.704Z,33.60
2019-05-19T19:37:30.986Z,33.60
2019-05-19T19:39:59.397Z,33.10
2019-05-19T19:42:27.661Z,33.40
2019-05-19T19:44:55.965Z,33.00
2019-05-19T19:47:24.208Z,32.90
2019-05-19T19:49:52.474Z,33.40
2019-05-19T19:52:20.753Z,33.20
2019-05-19T19:54:49.168Z,33.00
2019-05-19T19:57:17.412Z,32.80
2019-05-19T19:59:45.700Z,33.00
2019-05-19T20:02:13.986Z,33.00
2019-05-19T20:04:42.316Z,33.10
2019-05-19T20:07:10.610Z,33.10
2019-05-19T20:09:38.946Z,32.80
2019-05-19T20:12:07.223Z,32.90
2019-05-19T20:14:38.515Z,32.80
2019-05-19T20:17:05.467Z,33.20
2019-05-19T20:19:33.907Z,32.70
2019-05-19T20:22:02.193Z,32.70
2019-05-19T20:24:30.484Z,32.50
2019-05-19T20:26:58.737Z,32.50
2019-05-19T20:29:27.068Z,33.00
2019-05-19T20:31:55.309Z,33.20
2019-05-19T20:34:23.609Z,32.80
2019-05-19T20:36:51.854Z,33.00
2019-05-19T20:39:20.155Z,32.40
2019-05-19T20:41:48.372Z,33.30
2019-05-19T20:44:16.654Z,33.30
2019-05-19T20:46:44.931Z,33.90
2019-05-19T20:49:13.409Z,34.00
2019-05-19T20:51:41.707Z,33.80
2019-05-19T20:54:10.263Z,34.00
2019-05-19T20:56:38.561Z,34.00
2019-05-19T20:59:06.809Z,34.00
2019-05-19T21:01:54.624Z,34.00
2019-05-19T21:04:22.869Z,33.80
2019-05-19T21:06:51.234Z,33.70
2019-05-19T21:09:19.955Z,33.70
2019-05-19T21:11:48.239Z,33.70
2019-05-19T21:14:16.476Z,33.70
2019-05-19T21:16:44.847Z,33.80
2019-05-19T21:19:13.126Z,33.40
2019-05-19T21:21:41.374Z,33.90
2019-05-19T21:24:09.747Z,34.20
2019-05-19T21:26:38.013Z,34.00
2019-05-19T21:29:07.776Z,34.60
2019-05-19T21:31:36.088Z,34.00
2019-05-19T21:34:04.383Z,34.30
2019-05-19T21:36:32.667Z,34.60
2019-05-19T21:39:00.915Z,34.50
2019-05-19T21:41:29.183Z,34.40
2019-05-19T21:43:57.445Z,35.10
2019-05-19T21:46:25.906Z,35.10
2019-05-19T21:48:54.194Z,35.10
2019-05-19T21:51:22.484Z,35.00
2019-05-19T21:53:50.755Z,34.70
2019-05-19T21:56:19.045Z,35.00
2019-05-19T21:58:47.300Z,35.10
2019-05-19T22:01:23.289Z,34.80
2019-05-19T22:03:45.916Z,34.30
2019-05-19T22:06:14.426Z,34.40
2019-05-19T22:08:42.720Z,34.20
2019-05-19T22:11:10.986Z,34.60
2019-05-19T22:13:39.326Z,34.20
2019-05-19T22:16:12.879Z,35.10
2019-05-19T22:18:37.609Z,35.10
2019-05-19T22:21:05.908Z,35.10
2019-05-19T22:23:34.181Z,35.10
2019-05-19T22:26:02.465Z,35.00
2019-05-19T22:28:30.730Z,34.80
2019-05-19T22:30:59.016Z,34.80
2019-05-19T22:33:27.256Z,34.80
2019-05-19T22:35:55.499Z,34.80
2019-05-19T22:38:23.776Z,34.80
2019-05-19T22:40:52.117Z,34.70
2019-05-19T22:43:20.349Z,34.70
2019-05-19T22:45:48.646Z,34.80
2019-05-19T22:48:17.005Z,34.80
2019-05-19T22:51:04.774Z,35.00
2019-05-19T22:53:33.107Z,34.80
2019-05-19T22:56:01.479Z,34.80
2019-05-19T22:58:29.821Z,34.80
2019-05-19T23:00:58.896Z,34.70
2019-05-19T23:03:27.442Z,34.70
2019-05-19T23:05:55.893Z,34.70
2019-05-19T23:08:24.191Z,34.80
2019-05-19T23:10:52.463Z,34.90
2019-05-19T23:13:20.903Z,34.90
2019-05-19T23:15:49.167Z,34.90
2019-05-19T23:18:17.441Z,34.80
2019-05-19T23:20:45.749Z,34.80
2019-05-19T23:23:14.010Z,34.90
2019-05-19T23:25:42.290Z,34.80
2019-05-19T23:28:10.553Z,34.80
2019-05-19T23:30:39.015Z,35.30
2019-05-19T23:33:07.255Z,34.80
2019-05-19T23:35:35.547Z,34.70
2019-05-19T23:38:03.826Z,35.50
2019-05-19T23:40:32.067Z,34.90
2019-05-19T23:43:00.363Z,34.80
2019-05-19T23:45:28.643Z,34.80
2019-05-19T23:47:56.918Z,34.70
2019-05-19T23:50:26.267Z,34.70
2019-05-19T23:52:54.555Z,34.80
2019-05-19T23:55:22.902Z,34.80
2019-05-19T23:57:51.590Z,34.80
